sensor_id;sensor_type;location;lat;lon;timestamp;pressure;altitude;pressure_sealevel;temperature;humidity
23281;BME280;11809;56.390;-3.266;2022-08-01T00:00:13;101383.06;;;19.37;59.19
23281;BME280;11809;56.390;-3.266;2022-08-01T00:02:40;101389.25;;;19.38;59.29
23281;BME280;11809;56.390;-3.266;2022-08-01T00:05:08;101386.69;;;19.36;59.12
23281;BME280;11809;56.390;-3.266;2022-08-01T00:07:35;101392.00;;;19.36;59.28
23281;BME280;11809;56.390;-3.266;2022-08-01T00:10:04;101383.06;;;19.37;59.29
23281;BME280;11809;56.390;-3.266;2022-08-01T00:12:31;101386.69;;;19.36;59.23
23281;BME280;11809;56.390;-3.266;2022-08-01T00:14:58;101384.97;;;19.35;59.26
23281;BME280;11809;56.390;-3.266;2022-08-01T00:17:25;101378.78;;;19.34;59.21
23281;BME280;11809;56.390;-3.266;2022-08-01T00:19:52;101377.81;;;19.35;59.28
23281;BME280;11809;56.390;-3.266;2022-08-01T00:22:19;101376.13;;;19.34;59.24
23281;BME280;11809;56.390;-3.266;2022-08-01T00:24:46;101379.63;;;19.35;59.62
23281;BME280;11809;56.390;-3.266;2022-08-01T00:27:13;101377.94;;;19.34;59.13
23281;BME280;11809;56.390;-3.266;2022-08-01T00:29:40;101378.88;;;19.33;59.45
23281;BME280;11809;56.390;-3.266;2022-08-01T00:32:27;101370.88;;;19.33;59.43
23281;BME280;11809;56.390;-3.266;2022-08-01T00:34:56;101371.00;;;19.31;59.65
23281;BME280;11809;56.390;-3.266;2022-08-01T00:37:23;101374.53;;;19.32;59.52
23281;BME280;11809;56.390;-3.266;2022-08-01T00:39:49;101369.19;;;19.32;59.33
23281;BME280;11809;56.390;-3.266;2022-08-01T00:42:17;101371.75;;;19.33;59.26
23281;BME280;11809;56.390;-3.266;2022-08-01T00:44:44;101363.84;;;19.32;59.32
23281;BME280;11809;56.390;-3.266;2022-08-01T00:47:11;101364.81;;;19.31;59.27
23281;BME280;11809;56.390;-3.266;2022-08-01T00:49:38;101370.13;;;19.31;59.45
23281;BME280;11809;56.390;-3.266;2022-08-01T00:52:05;101364.81;;;19.31;59.28
23281;BME280;11809;56.390;-3.266;2022-08-01T00:54:33;101362.13;;;19.31;59.00
23281;BME280;11809;56.390;-3.266;2022-08-01T00:57:00;101355.94;;;19.30;59.10
23281;BME280;11809;56.390;-3.266;2022-08-01T00:59:27;101351.66;;;19.28;59.46
23281;BME280;11809;56.390;-3.266;2022-08-01T01:01:54;101349.00;;;19.28;59.21
23281;BME280;11809;56.390;-3.266;2022-08-01T01:04:22;101355.09;;;19.30;59.08
23281;BME280;11809;56.390;-3.266;2022-08-01T01:15:18;101344.63;;;19.27;59.53
23281;BME280;11809;56.390;-3.266;2022-08-01T01:18:09;101341.94;;;19.27;59.61
23281;BME280;11809;56.390;-3.266;2022-08-01T01:20:44;101342.94;;;19.26;59.41
23281;BME280;11809;56.390;-3.266;2022-08-01T01:24:34;101341.13;;;19.26;59.53
23281;BME280;11809;56.390;-3.266;2022-08-01T01:27:05;101342.94;;;19.26;59.53
23281;BME280;11809;56.390;-3.266;2022-08-01T01:29:42;101349.19;;;19.25;59.36
23281;BME280;11809;56.390;-3.266;2022-08-01T01:32:35;101355.50;;;19.24;59.21
23281;BME280;11809;56.390;-3.266;2022-08-01T01:35:09;101338.72;;;19.22;59.60
23281;BME280;11809;56.390;-3.266;2022-08-01T01:37:39;101348.44;;;19.23;59.34
23281;BME280;11809;56.390;-3.266;2022-08-01T01:40:07;101344.06;;;19.22;59.50
23281;BME280;11809;56.390;-3.266;2022-08-01T01:42:37;101341.41;;;19.22;59.63
23281;BME280;11809;56.390;-3.266;2022-08-01T01:45:05;101339.72;;;19.21;59.43
23281;BME280;11809;56.390;-3.266;2022-08-01T01:47:33;101338.84;;;19.20;59.41
23281;BME280;11809;56.390;-3.266;2022-08-01T01:50:01;101338.94;;;19.19;59.43
23281;BME280;11809;56.390;-3.266;2022-08-01T01:52:29;101336.25;;;19.19;59.45
23281;BME280;11809;56.390;-3.266;2022-08-01T01:54:58;101342.56;;;19.18;59.54
23281;BME280;11809;56.390;-3.266;2022-08-01T01:57:27;101340.84;;;19.17;59.41
23281;BME280;11809;56.390;-3.266;2022-08-01T01:59:57;101338.19;;;19.17;59.41
23281;BME280;11809;56.390;-3.266;2022-08-01T02:02:26;101336.50;;;19.16;59.45
23281;BME280;11809;56.390;-3.266;2022-08-01T02:04:54;101338.19;;;19.17;59.20
23281;BME280;11809;56.390;-3.266;2022-08-01T02:07:24;101339.16;;;19.16;59.52
23281;BME280;11809;56.390;-3.266;2022-08-01T02:09:52;101337.31;;;19.16;59.29
23281;BME280;11809;56.390;-3.266;2022-08-01T02:12:20;101333.91;;;19.14;58.86
23281;BME280;11809;56.390;-3.266;2022-08-01T02:14:53;101334.75;;;19.15;58.82
23281;BME280;11809;56.390;-3.266;2022-08-01T02:17:23;101341.91;;;19.14;59.25
23281;BME280;11809;56.390;-3.266;2022-08-01T02:19:52;101339.34;;;19.13;58.52
23281;BME280;11809;56.390;-3.266;2022-08-01T02:22:29;101350.00;;;19.13;58.52
23281;BME280;11809;56.390;-3.266;2022-08-01T02:25:20;101341.03;;;19.14;58.27
23281;BME280;11809;56.390;-3.266;2022-08-01T02:27:58;101337.53;;;19.13;58.08
23281;BME280;11809;56.390;-3.266;2022-08-01T02:30:32;101329.56;;;19.13;57.73
23281;BME280;11809;56.390;-3.266;2022-08-01T02:33:15;101325.25;;;19.11;57.75
23281;BME280;11809;56.390;-3.266;2022-08-01T02:35:46;101329.81;;;19.09;58.09
23281;BME280;11809;56.390;-3.266;2022-08-01T02:38:36;101327.34;;;19.06;57.78
23281;BME280;11809;56.390;-3.266;2022-08-01T02:41:07;101322.88;;;19.06;58.39
23281;BME280;11809;56.390;-3.266;2022-08-01T02:43:38;101314.03;;;19.06;58.28
23281;BME280;11809;56.390;-3.266;2022-08-01T02:46:08;101315.00;;;19.05;58.13
23281;BME280;11809;56.390;-3.266;2022-08-01T02:48:41;101315.00;;;19.05;58.20
23281;BME280;11809;56.390;-3.266;2022-08-01T02:51:10;101315.94;;;19.04;58.30
23281;BME280;11809;56.390;-3.266;2022-08-01T02:53:39;101313.28;;;19.04;58.07
23281;BME280;11809;56.390;-3.266;2022-08-01T02:56:11;101305.28;;;19.04;57.71
23281;BME280;11809;56.390;-3.266;2022-08-01T02:58:39;101301.03;;;19.01;57.69
23281;BME280;11809;56.390;-3.266;2022-08-01T03:01:08;101303.81;;;19.00;57.45
23281;BME280;11809;56.390;-3.266;2022-08-01T03:03:37;101301.97;;;19.00;57.96
23281;BME280;11809;56.390;-3.266;2022-08-01T03:06:05;101298.66;;;18.97;58.27
23281;BME280;11809;56.390;-3.266;2022-08-01T03:08:34;101304.06;;;18.95;58.28
23281;BME280;11809;56.390;-3.266;2022-08-01T03:11:01;101295.88;;;18.98;58.40
23281;BME280;11809;56.390;-3.266;2022-08-01T03:13:31;101296.94;;;18.96;58.38
23281;BME280;11809;56.390;-3.266;2022-08-01T03:15:59;101296.94;;;18.96;58.51
23281;BME280;11809;56.390;-3.266;2022-08-01T03:18:28;101298.84;;;18.94;58.55
23281;BME280;11809;56.390;-3.266;2022-08-01T03:20:57;101297.13;;;18.93;58.48
23281;BME280;11809;56.390;-3.266;2022-08-01T03:23:28;101294.47;;;18.93;58.50
23281;BME280;11809;56.390;-3.266;2022-08-01T03:26:04;101301.72;;;18.91;58.44
23281;BME280;11809;56.390;-3.266;2022-08-01T03:28:33;101293.72;;;18.91;58.46
23281;BME280;11809;56.390;-3.266;2022-08-01T03:31:01;101283.06;;;18.91;58.69
23281;BME280;11809;56.390;-3.266;2022-08-01T03:33:28;101288.41;;;18.91;58.67
23281;BME280;11809;56.390;-3.266;2022-08-01T03:35:57;101289.34;;;18.90;58.42
23281;BME280;11809;56.390;-3.266;2022-08-01T03:38:26;101293.91;;;18.88;58.33
23281;BME280;11809;56.390;-3.266;2022-08-01T03:41:02;101304.56;;;18.88;58.09
23281;BME280;11809;56.390;-3.266;2022-08-01T03:43:36;101293.06;;;18.87;58.04
23281;BME280;11809;56.390;-3.266;2022-08-01T03:46:07;101284.13;;;18.88;57.95
23281;BME280;11809;56.390;-3.266;2022-08-01T03:48:39;101290.50;;;18.86;57.50
23281;BME280;11809;56.390;-3.266;2022-08-01T03:51:08;101288.78;;;18.85;57.67
23281;BME280;11809;56.390;-3.266;2022-08-01T03:53:38;101292.41;;;18.84;57.72
23281;BME280;11809;56.390;-3.266;2022-08-01T03:56:08;101289.75;;;18.84;57.81
23281;BME280;11809;56.390;-3.266;2022-08-01T03:58:39;101287.09;;;18.84;57.86
23281;BME280;11809;56.390;-3.266;2022-08-01T04:01:07;101293.34;;;18.83;57.76
23281;BME280;11809;56.390;-3.266;2022-08-01T04:03:42;101288.16;;;18.81;58.08
23281;BME280;11809;56.390;-3.266;2022-08-01T04:06:09;101285.56;;;18.80;57.99
23281;BME280;11809;56.390;-3.266;2022-08-01T04:08:38;101289.09;;;18.80;57.62
23281;BME280;11809;56.390;-3.266;2022-08-01T04:11:05;101290.88;;;18.80;58.00
23281;BME280;11809;56.390;-3.266;2022-08-01T04:13:34;101294.53;;;18.79;58.14
23281;BME280;11809;56.390;-3.266;2022-08-01T04:16:04;101287.47;;;18.77;58.07
23281;BME280;11809;56.390;-3.266;2022-08-01T04:18:31;101290.03;;;18.79;58.12
23281;BME280;11809;56.390;-3.266;2022-08-01T04:20:58;101293.84;;;18.75;58.02
23281;BME280;11809;56.390;-3.266;2022-08-01T04:23:27;101291.28;;;18.73;58.05
23281;BME280;11809;56.390;-3.266;2022-08-01T04:25:55;101289.38;;;18.75;58.23
23281;BME280;11809;56.390;-3.266;2022-08-01T04:28:24;101288.72;;;18.72;57.76
23281;BME280;11809;56.390;-3.266;2022-08-01T04:30:54;101285.19;;;18.71;58.17
23281;BME280;11809;56.390;-3.266;2022-08-01T04:33:28;101289.66;;;18.71;57.98
23281;BME280;11809;56.390;-3.266;2022-08-01T04:35:58;101287.78;;;18.73;58.29
23281;BME280;11809;56.390;-3.266;2022-08-01T04:38:32;101292.06;;;18.75;58.15
23281;BME280;11809;56.390;-3.266;2022-08-01T04:41:00;101287.59;;;18.76;58.53
23281;BME280;11809;56.390;-3.266;2022-08-01T04:43:36;101281.41;;;18.75;58.80
23281;BME280;11809;56.390;-3.266;2022-08-01T04:46:03;101295.84;;;18.71;58.27
23281;BME280;11809;56.390;-3.266;2022-08-01T04:48:32;101294.78;;;18.32;55.90
23281;BME280;11809;56.390;-3.266;2022-08-01T04:51:00;101300.78;;;18.07;55.45
23281;BME280;11809;56.390;-3.266;2022-08-01T04:53:27;101306.59;;;17.84;55.01
23281;BME280;11809;56.390;-3.266;2022-08-01T04:55:54;101300.50;;;17.68;55.21
23281;BME280;11809;56.390;-3.266;2022-08-01T04:58:22;101301.38;;;17.52;55.04
23281;BME280;11809;56.390;-3.266;2022-08-01T05:00:49;101298.66;;;17.38;55.23
23281;BME280;11809;56.390;-3.266;2022-08-01T05:03:16;101301.84;;;17.29;55.54
23281;BME280;11809;56.390;-3.266;2022-08-01T05:05:43;101298.94;;;17.18;55.73
23281;BME280;11809;56.390;-3.266;2022-08-01T05:08:10;101291.31;;;17.12;55.92
23281;BME280;11809;56.390;-3.266;2022-08-01T05:10:37;101303.84;;;17.10;55.99
23281;BME280;11809;56.390;-3.266;2022-08-01T05:13:04;101302.69;;;17.30;56.90
23281;BME280;11809;56.390;-3.266;2022-08-01T05:15:34;101300.47;;;17.53;58.42
23281;BME280;11809;56.390;-3.266;2022-08-01T05:18:03;101297.66;;;17.71;58.67
23281;BME280;11809;56.390;-3.266;2022-08-01T05:20:33;101303.19;;;17.82;59.05
23281;BME280;11809;56.390;-3.266;2022-08-01T05:23:00;101304.44;;;17.90;59.15
23281;BME280;11809;56.390;-3.266;2022-08-01T05:25:26;101305.72;;;17.99;59.14
23281;BME280;11809;56.390;-3.266;2022-08-01T05:28:14;101295.47;;;18.07;58.97
23281;BME280;11809;56.390;-3.266;2022-08-01T05:30:44;101295.06;;;18.13;59.25
23281;BME280;11809;56.390;-3.266;2022-08-01T05:33:11;101298.31;;;18.18;59.31
23281;BME280;11809;56.390;-3.266;2022-08-01T05:35:38;101301.44;;;18.25;59.16
23281;BME280;11809;56.390;-3.266;2022-08-01T05:38:14;101294.97;;;18.29;59.35
23281;BME280;11809;56.390;-3.266;2022-08-01T05:40:41;101297.56;;;18.30;59.18
23281;BME280;11809;56.390;-3.266;2022-08-01T05:43:08;101298.22;;;18.34;59.16
23281;BME280;11809;56.390;-3.266;2022-08-01T05:45:35;101303.34;;;18.37;59.32
23281;BME280;11809;56.390;-3.266;2022-08-01T05:48:02;101293.56;;;18.37;59.18
23281;BME280;11809;56.390;-3.266;2022-08-01T05:50:29;101302.28;;;18.39;59.24
23281;BME280;11809;56.390;-3.266;2022-08-01T05:52:55;101296.03;;;18.40;58.98
23281;BME280;11809;56.390;-3.266;2022-08-01T05:55:22;101295.84;;;18.43;59.32
23281;BME280;11809;56.390;-3.266;2022-08-01T05:57:49;101288.72;;;18.44;59.13
23281;BME280;11809;56.390;-3.266;2022-08-01T06:00:16;101293.88;;;18.47;59.04
23281;BME280;11809;56.390;-3.266;2022-08-01T06:02:43;101293.69;;;18.50;58.98
23281;BME280;11809;56.390;-3.266;2022-08-01T06:05:10;101301.59;;;18.51;59.89
23281;BME280;11809;56.390;-3.266;2022-08-01T06:07:39;101291.81;;;18.52;60.59
23281;BME280;11809;56.390;-3.266;2022-08-01T06:10:07;101293.50;;;18.53;60.81
23281;BME280;11809;56.390;-3.266;2022-08-01T06:12:35;101296.06;;;18.54;61.11
23281;BME280;11809;56.390;-3.266;2022-08-01T06:15:05;101299.50;;;18.56;61.08
23281;BME280;11809;56.390;-3.266;2022-08-01T06:17:33;101312.69;;;18.58;61.16
23281;BME280;11809;56.390;-3.266;2022-08-01T06:20:00;101307.28;;;18.59;60.60
23281;BME280;11809;56.390;-3.266;2022-08-01T06:22:27;101313.16;;;18.36;57.30
23281;BME280;11809;56.390;-3.266;2022-08-01T06:24:56;101308.13;;;18.17;56.67
23281;BME280;11809;56.390;-3.266;2022-08-01T06:27:23;101302.94;;;18.00;56.34
23281;BME280;11809;56.390;-3.266;2022-08-01T06:29:51;101296.38;;;17.92;56.17
23281;BME280;11809;56.390;-3.266;2022-08-01T06:32:22;101295.72;;;17.88;56.08
23281;BME280;11809;56.390;-3.266;2022-08-01T06:34:54;101290.84;;;17.81;56.07
23281;BME280;11809;56.390;-3.266;2022-08-01T06:37:22;101290.69;;;17.98;56.80
23281;BME280;11809;56.390;-3.266;2022-08-01T06:39:49;101289.00;;;18.11;56.92
23281;BME280;11809;56.390;-3.266;2022-08-01T06:42:16;101287.47;;;18.21;57.49
23281;BME280;11809;56.390;-3.266;2022-08-01T06:44:44;101288.03;;;18.26;57.65
23281;BME280;11809;56.390;-3.266;2022-08-01T06:47:11;101285.13;;;18.31;58.10
23281;BME280;11809;56.390;-3.266;2022-08-01T06:49:38;101280.56;;;18.33;58.43
23281;BME280;11809;56.390;-3.266;2022-08-01T06:52:05;101286.56;;;18.36;58.64
23281;BME280;11809;56.390;-3.266;2022-08-01T06:54:33;101281.13;;;18.38;59.44
23281;BME280;11809;56.390;-3.266;2022-08-01T06:57:00;101281.00;;;18.39;60.05
23281;BME280;11809;56.390;-3.266;2022-08-01T06:59:27;101280.19;;;18.39;60.24
23281;BME280;11809;56.390;-3.266;2022-08-01T07:01:54;101267.69;;;18.39;60.82
23281;BME280;11809;56.390;-3.266;2022-08-01T07:04:21;101271.22;;;18.40;60.49
23281;BME280;11809;56.390;-3.266;2022-08-01T07:06:48;101267.69;;;18.39;61.00
23281;BME280;11809;56.390;-3.266;2022-08-01T07:09:15;101270.19;;;18.42;60.82
23281;BME280;11809;56.390;-3.266;2022-08-01T07:11:42;101270.94;;;18.44;60.91
23281;BME280;11809;56.390;-3.266;2022-08-01T07:14:09;101267.31;;;18.45;60.92
23281;BME280;11809;56.390;-3.266;2022-08-01T07:16:36;101266.38;;;18.46;60.65
23281;BME280;11809;56.390;-3.266;2022-08-01T07:19:03;101272.56;;;18.47;60.63
23281;BME280;11809;56.390;-3.266;2022-08-01T07:21:30;101283.03;;;18.50;60.83
23281;BME280;11809;56.390;-3.266;2022-08-01T07:24:07;101276.75;;;18.51;60.76
23281;BME280;11809;56.390;-3.266;2022-08-01T07:26:44;101276.66;;;18.52;60.49
23281;BME280;11809;56.390;-3.266;2022-08-01T07:29:20;101272.19;;;18.53;60.63
23281;BME280;11809;56.390;-3.266;2022-08-01T07:31:47;101270.41;;;18.53;60.36
23281;BME280;11809;56.390;-3.266;2022-08-01T07:34:14;101273.06;;;18.53;60.40
23281;BME280;11809;56.390;-3.266;2022-08-01T07:36:42;101283.63;;;18.55;60.57
23281;BME280;11809;56.390;-3.266;2022-08-01T07:39:09;101275.63;;;18.55;60.35
23281;BME280;11809;56.390;-3.266;2022-08-01T07:41:36;101271.06;;;18.57;60.37
23281;BME280;11809;56.390;-3.266;2022-08-01T07:44:23;101266.59;;;18.57;60.44
23281;BME280;11809;56.390;-3.266;2022-08-01T07:46:53;101272.69;;;18.59;60.32
23281;BME280;11809;56.390;-3.266;2022-08-01T07:49:20;101269.03;;;18.60;60.09
23281;BME280;11809;56.390;-3.266;2022-08-01T07:51:48;101260.13;;;18.61;60.43
23281;BME280;11809;56.390;-3.266;2022-08-01T07:54:30;101263.63;;;18.62;60.23
23281;BME280;11809;56.390;-3.266;2022-08-01T07:56:59;101257.25;;;18.64;60.01
23281;BME280;11809;56.390;-3.266;2022-08-01T07:59:26;101265.25;;;18.64;59.82
23281;BME280;11809;56.390;-3.266;2022-08-01T08:01:54;101264.19;;;18.67;59.54
23281;BME280;11809;56.390;-3.266;2022-08-01T08:04:21;101259.72;;;18.67;59.65
23281;BME280;11809;56.390;-3.266;2022-08-01T08:06:48;101257.81;;;18.69;59.60
23281;BME280;11809;56.390;-3.266;2022-08-01T08:09:15;101256.88;;;18.70;59.55
23281;BME280;11809;56.390;-3.266;2022-08-01T08:11:45;101256.75;;;18.72;60.09
23281;BME280;11809;56.390;-3.266;2022-08-01T08:14:14;101255.72;;;18.74;59.81
23281;BME280;11809;56.390;-3.266;2022-08-01T08:16:42;101255.31;;;18.81;59.41
23281;BME280;11809;56.390;-3.266;2022-08-01T08:19:09;101253.88;;;18.89;59.21
23281;BME280;11809;56.390;-3.266;2022-08-01T08:21:37;101245.47;;;18.95;58.83
23281;BME280;11809;56.390;-3.266;2022-08-01T08:24:05;101246.88;;;19.01;58.89
23281;BME280;11809;56.390;-3.266;2022-08-01T08:26:59;101237.09;;;19.01;58.99
23281;BME280;11809;56.390;-3.266;2022-08-01T08:29:28;101245.00;;;19.03;59.17
23281;BME280;11809;56.390;-3.266;2022-08-01T08:31:56;101237.63;;;19.06;58.87
23281;BME280;11809;56.390;-3.266;2022-08-01T08:34:25;101233.91;;;19.09;58.98
23281;BME280;11809;56.390;-3.266;2022-08-01T08:36:54;101238.00;;;19.14;58.88
23281;BME280;11809;56.390;-3.266;2022-08-01T08:39:24;101234.25;;;19.17;58.86
23281;BME280;11809;56.390;-3.266;2022-08-01T08:41:53;101229.69;;;19.19;58.49
23281;BME280;11809;56.390;-3.266;2022-08-01T08:44:20;101233.88;;;19.23;58.82
23281;BME280;11809;56.390;-3.266;2022-08-01T08:46:49;101233.53;;;19.27;58.61
23281;BME280;11809;56.390;-3.266;2022-08-01T08:49:22;101226.28;;;19.29;58.64
23281;BME280;11809;56.390;-3.266;2022-08-01T08:51:51;101225.16;;;19.33;58.40
23281;BME280;11809;56.390;-3.266;2022-08-01T08:54:21;101224.94;;;19.36;58.45
23281;BME280;11809;56.390;-3.266;2022-08-01T08:56:58;101225.72;;;19.39;58.33
23281;BME280;11809;56.390;-3.266;2022-08-01T08:59:26;101221.06;;;19.42;58.16
23281;BME280;11809;56.390;-3.266;2022-08-01T09:01:53;101227.00;;;19.46;57.82
23281;BME280;11809;56.390;-3.266;2022-08-01T09:04:21;101229.47;;;19.49;57.85
23281;BME280;11809;56.390;-3.266;2022-08-01T09:06:53;101221.38;;;19.50;57.95
23281;BME280;11809;56.390;-3.266;2022-08-01T09:09:21;101216.06;;;19.50;57.84
23281;BME280;11809;56.390;-3.266;2022-08-01T09:11:48;101221.19;;;19.53;58.22
23281;BME280;11809;56.390;-3.266;2022-08-01T09:14:25;101212.94;;;19.56;57.89
23281;BME280;11809;56.390;-3.266;2022-08-01T09:17:09;101213.81;;;19.57;58.05
23281;BME280;11809;56.390;-3.266;2022-08-01T09:19:44;101210.19;;;19.58;57.95
23281;BME280;11809;56.390;-3.266;2022-08-01T09:22:15;101207.31;;;19.61;58.04
23281;BME280;11809;56.390;-3.266;2022-08-01T09:25:07;101211.78;;;19.60;57.87
23281;BME280;11809;56.390;-3.266;2022-08-01T09:27:37;101215.31;;;19.61;58.34
23281;BME280;11809;56.390;-3.266;2022-08-01T09:30:17;101220.44;;;19.64;58.18
23281;BME280;11809;56.390;-3.266;2022-08-01T09:32:59;101213.41;;;19.63;58.21
23281;BME280;11809;56.390;-3.266;2022-08-01T09:35:43;101210.59;;;19.64;57.90
23281;BME280;11809;56.390;-3.266;2022-08-01T09:38:21;101209.66;;;19.65;58.00
23281;BME280;11809;56.390;-3.266;2022-08-01T09:43:16;101209.13;;;19.73;58.38
23281;BME280;11809;56.390;-3.266;2022-08-01T09:45:44;101205.59;;;19.72;58.17
23281;BME280;11809;56.390;-3.266;2022-08-01T09:48:18;101200.19;;;19.74;58.26
23281;BME280;11809;56.390;-3.266;2022-08-01T09:50:52;101195.47;;;19.77;58.22
23281;BME280;11809;56.390;-3.266;2022-08-01T09:53:20;101199.84;;;19.78;58.18
23281;BME280;11809;56.390;-3.266;2022-08-01T09:56:08;101187.38;;;19.79;57.96
23281;BME280;11809;56.390;-3.266;2022-08-01T09:59:00;101193.34;;;19.82;58.11
23281;BME280;11809;56.390;-3.266;2022-08-01T10:01:48;101184.38;;;19.83;58.04
23281;BME280;11809;56.390;-3.266;2022-08-01T10:04:20;101191.31;;;19.86;58.05
23281;BME280;11809;56.390;-3.266;2022-08-01T10:06:49;101186.72;;;19.88;58.15
23281;BME280;11809;56.390;-3.266;2022-08-01T10:09:32;101181.28;;;19.89;57.93
23281;BME280;11809;56.390;-3.266;2022-08-01T10:12:07;101175.75;;;19.92;57.87
23281;BME280;11809;56.390;-3.266;2022-08-01T10:14:41;101168.47;;;19.94;57.71
23281;BME280;11809;56.390;-3.266;2022-08-01T10:17:14;101172.94;;;19.94;57.69
23281;BME280;11809;56.390;-3.266;2022-08-01T10:19:46;101172.00;;;19.95;57.57
23281;BME280;11809;56.390;-3.266;2022-08-01T10:22:14;101166.53;;;19.96;57.58
23281;BME280;11809;56.390;-3.266;2022-08-01T10:24:46;101168.34;;;19.96;57.76
23281;BME280;11809;56.390;-3.266;2022-08-01T10:27:15;101167.41;;;19.97;57.15
23281;BME280;11809;56.390;-3.266;2022-08-01T10:30:03;101168.25;;;19.98;57.73
23281;BME280;11809;56.390;-3.266;2022-08-01T10:32:46;101163.88;;;19.96;57.22
23281;BME280;11809;56.390;-3.266;2022-08-01T10:35:17;101171.78;;;19.98;57.49
23281;BME280;11809;56.390;-3.266;2022-08-01T10:38:05;101163.88;;;19.96;57.21
23281;BME280;11809;56.390;-3.266;2022-08-01T10:40:40;101169.97;;;19.99;57.17
23281;BME280;11809;56.390;-3.266;2022-08-01T10:43:09;101167.31;;;19.99;57.08
23281;BME280;11809;56.390;-3.266;2022-08-01T10:45:36;101171.78;;;19.98;57.02
23281;BME280;11809;56.390;-3.266;2022-08-01T10:50:42;101161.97;;;19.99;56.98
23281;BME280;11809;56.390;-3.266;2022-08-01T10:53:16;101165.59;;;19.98;56.84
23281;BME280;11809;56.390;-3.266;2022-08-01T11:01:23;101157.69;;;19.96;56.91
23281;BME280;11809;56.390;-3.266;2022-08-01T11:09:26;101142.66;;;19.95;57.04
23281;BME280;11809;56.390;-3.266;2022-08-01T11:17:35;101149.06;;;19.92;56.98
23281;BME280;11809;56.390;-3.266;2022-08-01T11:20:15;101135.72;;;19.92;57.34
23281;BME280;11809;56.390;-3.266;2022-08-01T11:28:35;101126.75;;;19.93;57.49
23281;BME280;11809;56.390;-3.266;2022-08-01T11:41:24;101110.31;;;20.00;56.02
23281;BME280;11809;56.390;-3.266;2022-08-01T11:49:40;101102.50;;;19.96;55.44
23281;BME280;11809;56.390;-3.266;2022-08-01T11:54:54;101093.22;;;20.02;55.07
23281;BME280;11809;56.390;-3.266;2022-08-01T11:57:28;101093.22;;;20.02;54.39
23281;BME280;11809;56.390;-3.266;2022-08-01T12:00:19;101097.69;;;20.02;54.46
23281;BME280;11809;56.390;-3.266;2022-08-01T12:02:59;101101.56;;;19.98;54.28
23281;BME280;11809;56.390;-3.266;2022-08-01T12:05:31;101110.53;;;19.96;54.83
23281;BME280;11809;56.390;-3.266;2022-08-01T12:08:00;101094.63;;;19.95;55.15
23281;BME280;11809;56.390;-3.266;2022-08-01T12:10:33;101096.22;;;19.98;55.52
23281;BME280;11809;56.390;-3.266;2022-08-01T12:13:15;101090.03;;;19.97;55.10
23281;BME280;11809;56.390;-3.266;2022-08-01T12:15:43;101095.38;;;19.97;55.03
23281;BME280;11809;56.390;-3.266;2022-08-01T12:18:14;101082.88;;;19.98;55.21
23281;BME280;11809;56.390;-3.266;2022-08-01T12:20:43;101090.03;;;19.97;55.05
23281;BME280;11809;56.390;-3.266;2022-08-01T12:23:22;101080.22;;;19.98;55.08
23281;BME280;11809;56.390;-3.266;2022-08-01T12:25:52;101076.59;;;19.99;55.31
23281;BME280;11809;56.390;-3.266;2022-08-01T12:28:20;101077.44;;;19.99;55.10
23281;BME280;11809;56.390;-3.266;2022-08-01T12:30:48;101077.34;;;20.01;54.81
23281;BME280;11809;56.390;-3.266;2022-08-01T12:33:19;101079.78;;;20.04;54.35
23281;BME280;11809;56.390;-3.266;2022-08-01T12:35:47;101065.47;;;20.05;53.66
23281;BME280;11809;56.390;-3.266;2022-08-01T12:38:17;101070.06;;;20.03;52.33
23281;BME280;11809;56.390;-3.266;2022-08-01T12:40:46;101062.06;;;20.03;52.68
23281;BME280;11809;56.390;-3.266;2022-08-01T12:43:20;101062.19;;;20.01;52.80
23281;BME280;11809;56.390;-3.266;2022-08-01T12:45:53;101060.34;;;20.02;52.87
23281;BME280;11809;56.390;-3.266;2022-08-01T12:48:22;101062.28;;;20.00;52.57
23281;BME280;11809;56.390;-3.266;2022-08-01T12:50:51;101056.09;;;19.99;53.10
23281;BME280;11809;56.390;-3.266;2022-08-01T12:53:19;101051.59;;;20.00;52.81
23281;BME280;11809;56.390;-3.266;2022-08-01T12:55:53;101044.34;;;20.02;52.38
23281;BME280;11809;56.390;-3.266;2022-08-01T12:58:30;101043.72;;;19.98;52.95
23281;BME280;11809;56.390;-3.266;2022-08-01T13:01:06;101041.16;;;19.96;53.17
23281;BME280;11809;56.390;-3.266;2022-08-01T13:03:34;101030.47;;;19.96;53.18
23281;BME280;11809;56.390;-3.266;2022-08-01T13:06:12;101035.09;;;19.94;53.32
23281;BME280;11809;56.390;-3.266;2022-08-01T13:08:42;101041.38;;;19.93;53.92
23281;BME280;11809;56.390;-3.266;2022-08-01T13:11:12;101034.34;;;19.92;54.10
23281;BME280;11809;56.390;-3.266;2022-08-01T13:13:49;101037.97;;;19.91;54.19
23281;BME280;11809;56.390;-3.266;2022-08-01T13:16:18;101037.75;;;19.94;54.73
23281;BME280;11809;56.390;-3.266;2022-08-01T13:19:00;101037.13;;;19.91;54.73
23281;BME280;11809;56.390;-3.266;2022-08-01T13:21:30;101033.50;;;19.92;54.58
23281;BME280;11809;56.390;-3.266;2022-08-01T13:24:31;101023.78;;;19.91;54.42
23281;BME280;11809;56.390;-3.266;2022-08-01T13:26:59;101028.03;;;19.93;54.31
23281;BME280;11809;56.390;-3.266;2022-08-01T13:32:19;101025.28;;;19.95;52.25
23281;BME280;11809;56.390;-3.266;2022-08-01T13:35:09;101020.03;;;19.93;52.16
23281;BME280;11809;56.390;-3.266;2022-08-01T13:37:37;101011.06;;;19.94;51.57
23281;BME280;11809;56.390;-3.266;2022-08-01T13:40:06;101020.78;;;19.95;51.46
23281;BME280;11809;56.390;-3.266;2022-08-01T13:42:34;101029.88;;;19.93;51.13
23281;BME280;11809;56.390;-3.266;2022-08-01T13:45:05;101022.69;;;19.93;51.14
23281;BME280;11809;56.390;-3.266;2022-08-01T13:47:43;101010.34;;;19.92;51.12
23281;BME280;11809;56.390;-3.266;2022-08-01T13:50:30;101001.25;;;19.95;50.97
23281;BME280;11809;56.390;-3.266;2022-08-01T13:52:58;101013.75;;;19.94;50.38
23281;BME280;11809;56.390;-3.266;2022-08-01T13:55:25;101003.19;;;19.93;50.01
23281;BME280;11809;56.390;-3.266;2022-08-01T13:57:59;100999.75;;;19.91;50.06